Flight Track Log - Related Links

Times and Time Zones

All times are in EDT time to prevent confusion due to time zone crossing. See the RPA3231 flight status page for this flight to view local times or setup timezone preferences in your user account.

Time Position Orientation Groundspeed Altitude Reporting Facility
EDT Latitude Longitude Course Direction KTS MPH feet Rate Location/Type
Wed 08:15:10 AM 26.6856 -80.1658 11° North 161 185 3,600  Level Miami Center
Wed 08:16:00 AM 27.0079 -80.0239 336° Northwest  Level Estimated
Wed 08:16:11 AM 26.6978 -80.2319 282° West 223 257 6,800  Level Miami Center
Wed 08:17:00 AM 27.1162 -79.9999 11° North  Level Estimated
Wed 08:17:13 AM 26.7500 -80.2817 320° Northwest 258 297 9,800  Level Miami Center
Wed 08:18:00 AM 27.2245 -79.9759 11° North  Level Estimated
Wed 08:18:14 AM 26.8269 -80.3253 333° Northwest 276 318 12,700  Level Miami Center
Wed 08:19:00 AM 27.3327 -79.9518 11° North  Level Estimated
Wed 08:19:15 AM 26.9000 -80.3678 333° Northwest 300 345 14,900  Level Miami Center
Wed 08:20:00 AM 27.4463 -79.9265 11° North  Level Estimated
Wed 08:20:17 AM 26.9819 -80.4142 333° Northwest 312 359 17,500  Level Miami Center
Wed 08:21:18 AM 27.0544 -80.4569 332° Northwest 317 365 19,700 2,049 Climbing Miami Center
Wed 08:22:20 AM 27.1342 -80.5036 332° Northwest 321 369 21,700 1,707 Climbing Miami Center
Wed 08:23:21 AM 27.2197 -80.5539 332° Northwest 341 392 23,200 1,561 Climbing Miami Center
Wed 08:24:23 AM 27.3103 -80.6061 333° Northwest 359 413 24,900 1,073 Climbing Miami Center
Wed 08:25:24 AM 27.4175 -80.6689 333° Northwest 363 418 25,400 537 Climbing Miami Center
Wed 08:26:26 AM 27.5097 -80.7164 335° Northwest 371 427 26,000 290 Climbing Miami Center
Wed 08:27:28 AM 27.6122 -80.7525 343° North 393 452 26,000 162 Level Miami Center
Wed 08:29:31 AM 27.8186 -80.8231 343° North 381 438 26,500 685 Climbing Miami Center
Wed 08:30:32 AM 27.9217 -80.8622 341° North 387 445 28,100 1,512 Climbing Miami Center
Wed 08:31:34 AM 28.0047 -80.9242 327° Northwest 359 413 29,600 1,597 Climbing Miami Center
Wed 08:32:36 AM 28.0878 -80.9867 326° Northwest 359 413 31,400 1,103 Climbing Miami Center
Wed 08:34:39 AM 28.2669 -81.1244 331° Northwest 368 423 33,000 519 Climbing Miami Center
Wed 08:35:41 AM 28.3658 -81.1819 333° Northwest 389 448 33,000  Level Miami Center
Wed 08:36:42 AM 28.4747 -81.2003 352° North 422 486 33,000  Level Miami Center
Wed 08:38:02 AM 28.6294 -81.2275 351° North 427 491 33,000  Level Jacksonville Center
Wed 08:39:02 AM 28.7467 -81.2469 352° North 421 484 33,000  Level Jacksonville Center
Wed 08:40:02 AM 28.8658 -81.2661 352° North 421 484 33,000  Level Jacksonville Center
Wed 08:41:03 AM 28.9850 -81.2856 352° North 426 490 33,000  Level Jacksonville Center
Wed 08:42:02 AM 29.1083 -81.3003 354° North 432 497 33,000  Level Jacksonville Center
Wed 08:43:02 AM 29.2256 -81.3244 350° North 432 497 33,000  Level Jacksonville Center
Wed 08:44:02 AM 29.3406 -81.3442 351° North 419 482 33,000  Level Jacksonville Center
Wed 08:45:02 AM 29.4556 -81.3614 353° North 419 482 33,000  Level Jacksonville Center
Wed 08:47:00 AM 29.6764 -81.4008 351° North 412 474 33,000  Level Miami Center
Wed 08:48:02 AM 29.7892 -81.4189 352° North 412 474 33,000  Level Miami Center
Wed 08:49:04 AM 29.9017 -81.4378 352° North 411 473 33,000  Level Miami Center
Wed 08:50:03 AM 30.0183 -81.4581 351° North 409 471 33,000  Level Jacksonville Center
Wed 08:52:02 AM 30.2653 -81.4978 352° North 419 482 33,000  Level Jacksonville Center
Wed 08:53:03 AM 30.3842 -81.5056 357° North 419 482 33,000  Level Jacksonville Center
Wed 08:54:02 AM 30.5072 -81.4967 North 430 495 33,000  Level Jacksonville Center
Wed 08:55:02 AM 30.6261 -81.4875 North 430 495 33,000  Level Jacksonville Center
Wed 08:56:02 AM 30.7472 -81.4786 North 430 495 33,000  Level Jacksonville Center
Wed 08:57:03 AM 30.8683 -81.4694 North 430 495 33,000  Level Jacksonville Center
Wed 08:58:03 AM 30.9914 -81.4603 North 430 495 33,000  Level Jacksonville Center
Wed 08:59:03 AM 31.1103 -81.4514 North 435 501 33,000  Level Jacksonville Center
Wed 09:00:02 AM 31.2292 -81.4397 North 428 493 33,000  Level Jacksonville Center
Wed 09:02:03 AM 31.4581 -81.3825 12° North 433 498 33,000  Level Jacksonville Center
Wed 09:03:02 AM 31.5825 -81.3097 26° Northeast 443 510 33,000  Level Jacksonville Center
Wed 09:04:02 AM 31.6964 -81.2297 31° Northeast 461 531 33,000  Level Jacksonville Center
Wed 09:05:03 AM 31.7975 -81.1547 32° Northeast 466 536 33,000  Level Jacksonville Center
Wed 09:06:02 AM 31.9194 -81.0617 33° Northeast 478 550 33,000  Level Jacksonville Center
Wed 09:07:02 AM 32.0228 -80.9886 31° Northeast 478 550 33,000  Level Jacksonville Center
Wed 09:08:03 AM 32.1444 -80.8978 32° Northeast 472 543 33,000  Level Jacksonville Center
Wed 09:09:02 AM 32.2558 -80.8142 32° Northeast 472 543 33,000  Level Jacksonville Center
Wed 09:10:02 AM 32.3672 -80.7281 33° Northeast 472 543 33,000  Level Jacksonville Center
Wed 09:11:02 AM 32.4786 -80.6467 32° Northeast 472 543 33,000  Level Jacksonville Center
Wed 09:12:03 AM 32.5878 -80.5625 33° Northeast 467 537 33,000  Level Jacksonville Center
Wed 09:13:02 AM 32.6989 -80.4783 33° Northeast 467 537 33,000  Level Jacksonville Center
Wed 09:14:03 AM 32.8100 -80.3939 33° Northeast 467 537 33,000  Level Jacksonville Center
Wed 09:15:02 AM 32.9189 -80.3117 32° Northeast 467 537 33,000  Level Jacksonville Center
Wed 09:16:02 AM 33.0339 -80.2264 32° Northeast 472 543 33,000  Level Jacksonville Center
Wed 09:18:02 AM 33.2414 -80.0639 33° Northeast 464 534 33,000  Level Jacksonville Center
Wed 09:19:02 AM 33.3519 -79.9808 32° Northeast 464 534 33,000  Level Jacksonville Center
Wed 09:20:02 AM 33.4628 -79.8925 34° Northeast 469 540 33,000  Level Jacksonville Center
Wed 09:21:02 AM 33.5733 -79.8064 33° Northeast 469 540 33,000  Level Jacksonville Center
Wed 09:22:02 AM 33.6858 -79.7203 32° Northeast 469 540 33,000  Level Jacksonville Center
Wed 09:24:03 AM 33.9028 -79.5472 33° Northeast 463 533 33,000  Level Jacksonville Center
Wed 09:25:55 AM 34.1094 -79.3892 32° Northeast 470 541 33,000  Level Washington Center
Wed 09:27:55 AM 34.3272 -79.2308 36° Northeast 475 547 33,000  Level Washington Center
Wed 09:28:56 AM 34.4439 -79.1628 26° Northeast 469 540 33,000  Level Washington Center
Wed 09:29:54 AM 34.5628 -79.0950 25° Northeast 464 534 33,000  Level Washington Center
Wed 09:31:55 AM 34.7942 -78.9608 25° Northeast 458 527 33,000  Level Washington Center
Wed 09:32:56 AM 34.9086 -78.8919 26° Northeast 452 520 33,000  Level Washington Center
Wed 09:33:53 AM 35.0253 -78.8258 25° Northeast 452 520 33,000  Level Washington Center
Wed 09:34:54 AM 35.1397 -78.7592 25° Northeast 452 520 33,000  Level Washington Center
Wed 09:35:54 AM 35.2542 -78.6900 26° Northeast 452 520 33,000  Level Washington Center
Wed 09:36:55 AM 35.3833 -78.6161 25° Northeast 458 527 33,000  Level Washington Center
Wed 09:37:55 AM 35.4978 -78.5464 26° Northeast 458 527 33,000 -149 Level Washington Center
Wed 09:38:56 AM 35.6122 -78.4792 26° Northeast 458 527 32,700 -446 Descending Washington Center
Wed 09:39:56 AM 35.7222 -78.4139 26° Northeast 447 514 32,100 -661 Descending Washington Center
Wed 09:40:54 AM 35.8322 -78.3486 26° Northeast 432 497 31,400 -655 Descending Washington Center
Wed 09:41:55 AM 35.9358 -78.2856 26° Northeast 426 490 30,800 -645 Descending Washington Center
Wed 09:42:55 AM 36.0436 -78.2225 25° Northeast 426 490 30,100 -655 Descending Washington Center
Wed 09:43:54 AM 36.1475 -78.1567 27° Northeast 426 490 29,500 -400 Descending Washington Center
Wed 09:45:55 AM 36.3525 -78.0317 28° Northeast 408 470 28,900 -527 Descending Washington Center
Wed 09:46:56 AM 36.4494 -77.9728 26° Northeast 401 461 27,900 -1,006 Descending Washington Center
Wed 09:48:54 AM 36.6458 -77.8519 26° Northeast 391 450 25,900 -1,000 Descending Washington Center
Wed 09:49:56 AM 36.7389 -77.7950 26° Northeast 380 437 24,900 -1,000 Descending Washington Center
Wed 09:50:54 AM 36.8275 -77.7403 26° Northeast 362 417 23,900 -1,008 Descending Washington Center
Wed 09:51:55 AM 36.9161 -77.6858 26° Northeast 357 411 22,900 -942 Descending Washington Center
Wed 09:52:55 AM 37.0044 -77.6308 26° Northeast 346 398 22,000 -446 Descending Washington Center
Wed 09:53:56 AM 37.0867 -77.5811 26° Northeast 340 391 22,000  Level Washington Center
Wed 09:54:54 AM 37.1731 -77.5258 27° Northeast 340 391 22,000  Level Washington Center
Wed 09:55:54 AM 37.2597 -77.4706 27° Northeast 340 391 22,000  Level Washington Center
Wed 09:56:56 AM 37.3458 -77.4178 26° Northeast 340 391 22,000  Level Washington Center
Wed 09:57:54 AM 37.4322 -77.3650 26° Northeast 345 397 22,000 -670 Level Washington Center
Wed 09:59:55 AM 37.6106 -77.2958 11° North 332 382 20,000 -989 Descending Washington Center
Wed 10:00:56 AM 37.6983 -77.2794 North 315 362 19,000 -1,170 Descending Washington Center
Wed 10:03:56 AM 37.9536 -77.2272 North 310 357 15,300 -1,266 Descending Washington Center
Wed 10:06:04 AM 38.1333 -77.1833 10° North 285 328 12,500 -1,277 Descending Potomac TRACON
Wed 10:07:04 AM 38.2000 -77.1667 11° North 281 323 11,300 -1,189 Descending Potomac TRACON
Wed 10:07:55 AM 38.2653 -77.1600 North 278 320 10,300 -709 Descending Washington Center
Wed 10:08:54 AM 38.3342 -77.1508 North 278 320 10,000 -800 Descending Washington Center
Wed 10:10:55 AM 38.4783 -77.1219 North 273 314 7,900 -1,121 Descending Washington Center
Wed 10:11:56 AM 38.5494 -77.1047 11° North 263 303 6,600 -1,466 Descending Washington Center
Wed 10:13:06 AM 38.6333 -77.0667 20° North 245 282 4,700 -1,708 Descending Potomac TRACON
Wed 10:14:06 AM 38.7000 -77.0333 21° North 242 278 2,900 -1,438 Descending Potomac TRACON
Wed 10:15:07 AM 38.7500 -77.0333 360° North 170 196 1,800 -942 Descending Potomac TRACON
Wed 10:16:07 AM 38.8000 -77.0333 360° North 128 147 1,000 -744 Descending Potomac TRACON
Wed 10:17:08 AM 38.8333 -77.0333 360° North 125 144 300 -689 Descending Potomac TRACON

Login

Don't have an account? Register now (free) for customized features, flight alerts, and more!